Kongen — LCDE — position and weather

sailwx.info

Track history (hours):
 
Tides and Currents Weather Stations Pressure Air Temp Water Temp Dewpoint Dewpoint Depression Visibility Wind Speed Wind Dir Waves Ship Positions

Kongen

Last reported at 2014-Dec-21 02:19 UTC. Time now 2014-Dec-21 08:30 UTC.
Position N 59°54' E 010°44'.

Length 50 m; draft 3.2 m.

Type: Passenger vessel. MMSI: 258509000.

Date/timePositionNaut miles runAvg speedWind from/ knotsBaromVisibWave heightAir tempDewpointWater temp
2014-Dec-21 02:19N 59°54' E 010°44'2 1.7
2014-Dec-21 01:07N 59°53' E 010°40'2 1.1
2014-Dec-20 23:20N 59°54' E 010°44'1 1.1
2014-Dec-20 22:11N 59°54' E 010°41'0 0.0
2014-Dec-20 21:11N 59°54' E 010°41'1 1.5
2014-Dec-20 20:19N 59°54' E 010°44'1 0.1
2014-Dec-20 03:10N 59°54' E 010°41'1 0.5
2014-Dec-20 00:19N 59°54' E 010°44'2 0.3
2014-Dec-19 18:15N 59°53' E 010°41'0 0.3
2014-Dec-19 17:17N 59°53' E 010°40'1 1.2
2014-Dec-19 16:31N 59°52' E 010°40'2 1.6
2014-Dec-19 15:31N 59°54' E 010°41'1 0.1
2014-Dec-19 07:27N 59°53' E 010°40'0 0.3
2014-Dec-19 06:25N 59°53' E 010°41'0 0.3
2014-Dec-19 05:17N 59°53' E 010°40'0 0.0
2014-Dec-18 07:29N 59°53' E 010°40'0 0.1
2014-Dec-18 06:29N 59°53' E 010°40'0 0.1
2014-Dec-18 05:17N 59°53' E 010°40'0 0.0
2014-Dec-17 18:17N 59°53' E 010°40'0 0.0
2014-Dec-17 17:17N 59°53' E 010°40'1 1.0
2014-Dec-17 16:32N 59°52' E 010°40'1 1.2
2014-Dec-17 15:29N 59°53' E 010°41'0 0.0
2014-Dec-17 07:27N 59°53' E 010°41'0 0.4
2014-Dec-17 06:27N 59°53' E 010°40'0 0.2
2014-Dec-17 05:16N 59°53' E 010°40'1 1.4
2014-Dec-17 04:30N 59°52' E 010°39'1 0.1
2014-Dec-16 18:17N 59°53' E 010°40'0 0.0
2014-Dec-16 16:08N 59°53' E 010°40'1 0.9
2014-Dec-16 15:30N 59°53' E 010°41'1 0.1
2014-Dec-16 07:28N 59°53' E 010°40'1 0.6
2014-Dec-16 06:31N 59°53' E 010°40'0 0.1
2014-Dec-16 05:33N 59°53' E 010°40'0 0.4
2014-Dec-16 04:30N 59°52' E 010°39'0 0.0
2014-Dec-16 00:06N 59°52' E 010°39'0 0.0
2014-Dec-15 23:23N 59°52' E 010°39'0 0.0
2014-Dec-15 22:21N 59°52' E 010°39'0 0.0
2014-Dec-15 21:27N 59°52' E 010°39'0 0.0
2014-Dec-15 20:27N 59°52' E 010°39'0 0.0
2014-Dec-15 19:30N 59°52' E 010°39'0 0.0
2014-Dec-15 18:26N 59°52' E 010°39'0 0.0
2014-Dec-15 17:30N 59°52' E 010°39'0 0.0
2014-Dec-15 16:28N 59°52' E 010°39'1 1.1
2014-Dec-15 15:33N 59°53' E 010°40'2 2.3
2014-Dec-15 14:33N 59°55' E 010°44'0 0.0
2014-Dec-15 13:24N 59°55' E 010°44'0 0.0
2014-Dec-15 12:12N 59°55' E 010°44'0 0.0
2014-Dec-15 11:24N 59°55' E 010°44'0 0.0
2014-Dec-15 10:30N 59°55' E 010°44'0 0.0
2014-Dec-15 09:30N 59°55' E 010°44'0 0.0
2014-Dec-15 08:30N 59°55' E 010°44'3 3.1
2014-Dec-15 07:31N 59°52' E 010°40'0 0.4
2014-Dec-15 06:29N 59°53' E 010°40'0 0.3
2014-Dec-15 05:33N 59°53' E 010°40'0 0.1
2014-Dec-15 04:33N 59°53' E 010°40'3 2.9
2014-Dec-15 03:33N 59°55' E 010°44'0 0.0
2014-Dec-15 02:24N 59°55' E 010°44'0 0.0
2014-Dec-15 01:27N 59°55' E 010°44'0 0.0
2014-Dec-15 00:24N 59°55' E 010°44'0 0.0
2014-Dec-14 23:27N 59°55' E 010°44'0 0.0
2014-Dec-14 22:27N 59°55' E 010°44'0 0.0
2014-Dec-14 21:30N 59°55' E 010°44'0 0.0
2014-Dec-14 20:30N 59°55' E 010°44'0 0.0
2014-Dec-14 19:30N 59°55' E 010°44'0 0.0
2014-Dec-14 18:33N 59°55' E 010°44'0 0.0
2014-Dec-14 17:33N 59°55' E 010°44'0 0.0
2014-Dec-14 16:33N 59°55' E 010°44'0 0.0
2014-Dec-14 15:21N 59°55' E 010°44'0 0.0
2014-Dec-14 14:33N 59°55' E 010°44'0 0.0
2014-Dec-14 13:33N 59°55' E 010°44'0 0.0
2014-Dec-14 12:21N 59°55' E 010°44'0 0.0
2014-Dec-14 11:24N 59°55' E 010°44'0 0.0
2014-Dec-14 10:27N 59°55' E 010°44'0 0.0
2014-Dec-14 09:27N 59°55' E 010°44'0 0.0
2014-Dec-14 08:30N 59°55' E 010°44'0 0.0
2014-Dec-14 07:30N 59°55' E 010°44'0 0.0
2014-Dec-14 06:27N 59°55' E 010°44'0 0.0
2014-Dec-14 05:33N 59°55' E 010°44'0 0.0
2014-Dec-14 04:18N 59°55' E 010°44'0 0.0
2014-Dec-14 03:33N 59°55' E 010°44'0 0.0
2014-Dec-14 02:33N 59°55' E 010°44'0 0.0
2014-Dec-14 01:33N 59°55' E 010°44'0 0.0
2014-Dec-14 00:21N 59°55' E 010°44'0 0.0
2014-Dec-13 23:33N 59°55' E 010°44'0 0.0
2014-Dec-13 22:24N 59°55' E 010°44'0 0.0
2014-Dec-13 21:24N 59°55' E 010°44'0 0.0
2014-Dec-13 20:27N 59°55' E 010°44'0 0.0
2014-Dec-13 19:27N 59°55' E 010°44'0 0.0
2014-Dec-13 18:30N 59°55' E 010°44'0 0.0
2014-Dec-13 17:27N 59°55' E 010°44'0 0.0
2014-Dec-13 16:27N 59°55' E 010°44'0 0.0
2014-Dec-13 15:33N 59°55' E 010°44'0 0.0
2014-Dec-13 14:33N 59°55' E 010°44'0 0.0
2014-Dec-13 13:30N 59°55' E 010°44'0 0.0
2014-Dec-13 12:33N 59°55' E 010°44'0 0.0
2014-Dec-13 11:33N 59°55' E 010°44'0 0.0
2014-Dec-13 10:33N 59°55' E 010°44'0 0.0
2014-Dec-13 09:33N 59°55' E 010°44'0 0.0
2014-Dec-13 08:24N 59°55' E 010°44'0 0.0
2014-Dec-13 07:24N 59°55' E 010°44'0 0.0
2014-Dec-13 06:27N 59°55' E 010°44'0 0.0
2014-Dec-13 05:27N 59°55' E 010°44'0 0.0
2014-Dec-13 04:27N 59°55' E 010°44'0 0.0
2014-Dec-13 03:30N 59°55' E 010°44'0 0.0
2014-Dec-13 02:30N 59°55' E 010°44'0 0.0
2014-Dec-13 01:30N 59°55' E 010°44'0 0.0
2014-Dec-13 00:33N 59°55' E 010°44'0 0.0
2014-Dec-12 23:33N 59°55' E 010°44'0 0.0
2014-Dec-12 22:30N 59°55' E 010°44'0 0.0
2014-Dec-12 21:33N 59°55' E 010°44'0 0.0
2014-Dec-12 20:33N 59°55' E 010°44'0 0.0
2014-Dec-12 19:33N 59°55' E 010°44'0 0.0
2014-Dec-12 18:24N 59°55' E 010°44'0 0.0
2014-Dec-12 17:21N 59°55' E 010°44'3 3.4
2014-Dec-12 16:30N 59°53' E 010°40'0 0.1
2014-Dec-12 15:30N 59°53' E 010°40'1 0.5
2014-Dec-12 14:26N 59°53' E 010°41'2 2.3
2014-Dec-12 13:28N 59°55' E 010°44'0 0.0
2014-Dec-12 12:16N 59°55' E 010°44'0 0.0
2014-Dec-12 11:31N 59°55' E 010°44'0 0.1
2014-Dec-12 10:33N 59°55' E 010°44'0 0.1
2014-Dec-12 09:33N 59°54' E 010°44'0 0.1
2014-Dec-12 08:33N 59°55' E 010°44'1 1.0
2014-Dec-12 07:33N 59°54' E 010°42'0 0.2
2014-Dec-12 06:33N 59°54' E 010°42'1 1.2
2014-Dec-12 05:29N 59°55' E 010°44'0 0.0
2014-Dec-12 04:17N 59°55' E 010°44'0 0.0
2014-Dec-12 03:23N 59°55' E 010°44'0 0.0
2014-Dec-12 02:32N 59°55' E 010°44'0 0.0
2014-Dec-12 01:23N 59°55' E 010°44'0 0.0
2014-Dec-12 00:23N 59°55' E 010°44'0 0.0
2014-Dec-11 23:23N 59°55' E 010°44'0 0.0
2014-Dec-11 22:23N 59°55' E 010°44'0 0.0
2014-Dec-11 21:29N 59°55' E 010°44'0 0.0
2014-Dec-11 20:29N 59°55' E 010°44'0 0.0
2014-Dec-11 19:29N 59°55' E 010°44'0 0.0
2014-Dec-11 18:29N 59°55' E 010°44'0 0.1
2014-Dec-11 17:33N 59°55' E 010°44'0 0.0
2014-Dec-11 16:33N 59°55' E 010°44'0 0.1
2014-Dec-11 15:33N 59°55' E 010°44'0 0.1
2014-Dec-11 14:33N 59°55' E 010°44'0 0.0
2014-Dec-11 13:33N 59°55' E 010°44'0 0.1
2014-Dec-11 12:33N 59°55' E 010°44'0 0.0
2014-Dec-11 11:33N 59°55' E 010°44'0 0.1
2014-Dec-11 10:23N 59°55' E 010°44'0 0.0
2014-Dec-11 09:23N 59°55' E 010°44'0 0.0
2014-Dec-11 08:29N 59°55' E 010°44'0 0.1
2014-Dec-11 07:33N 59°55' E 010°44'0 0.0
2014-Dec-11 06:33N 59°55' E 010°44'0 0.1
2014-Dec-11 05:33N 59°55' E 010°44'  
Track history (hours):
 
Tides and Currents Weather Stations Pressure Air Temp Water Temp Dewpoint Dewpoint Depression Visibility Wind Speed Wind Dir Waves Ship Positions

Kongen

Last reported at 2014-Dec-21 02:19 UTC. Time now 2014-Dec-21 08:30 UTC.
Position N 59°54' E 010°44'.

Length 50 m; draft 3.2 m.

Type: Passenger vessel. MMSI: 258509000.

Date/timePositionNaut miles runAvg speedWind from/ knotsBaromVisibWave heightAir tempDewpointWater temp
2014-Dec-21 02:19N 59°54' E 010°44'2 1.7
2014-Dec-21 01:07N 59°53' E 010°40'2 1.1
2014-Dec-20 23:20N 59°54' E 010°44'1 1.1
2014-Dec-20 22:11N 59°54' E 010°41'0 0.0
2014-Dec-20 21:11N 59°54' E 010°41'1 1.5
2014-Dec-20 20:19N 59°54' E 010°44'1 0.1
2014-Dec-20 03:10N 59°54' E 010°41'1 0.5
2014-Dec-20 00:19N 59°54' E 010°44'2 0.3
2014-Dec-19 18:15N 59°53' E 010°41'0 0.3
2014-Dec-19 17:17N 59°53' E 010°40'1 1.2
2014-Dec-19 16:31N 59°52' E 010°40'2 1.6
2014-Dec-19 15:31N 59°54' E 010°41'1 0.1
2014-Dec-19 07:27N 59°53' E 010°40'0 0.3
2014-Dec-19 06:25N 59°53' E 010°41'0 0.3
2014-Dec-19 05:17N 59°53' E 010°40'0 0.0
2014-Dec-18 07:29N 59°53' E 010°40'0 0.1
2014-Dec-18 06:29N 59°53' E 010°40'0 0.1
2014-Dec-18 05:17N 59°53' E 010°40'0 0.0
2014-Dec-17 18:17N 59°53' E 010°40'0 0.0
2014-Dec-17 17:17N 59°53' E 010°40'1 1.0
2014-Dec-17 16:32N 59°52' E 010°40'1 1.2
2014-Dec-17 15:29N 59°53' E 010°41'0 0.0
2014-Dec-17 07:27N 59°53' E 010°41'0 0.4
2014-Dec-17 06:27N 59°53' E 010°40'0 0.2
2014-Dec-17 05:16N 59°53' E 010°40'1 1.4
2014-Dec-17 04:30N 59°52' E 010°39'1 0.1
2014-Dec-16 18:17N 59°53' E 010°40'0 0.0
2014-Dec-16 16:08N 59°53' E 010°40'1 0.9
2014-Dec-16 15:30N 59°53' E 010°41'1 0.1
2014-Dec-16 07:28N 59°53' E 010°40'1 0.6
2014-Dec-16 06:31N 59°53' E 010°40'0 0.1
2014-Dec-16 05:33N 59°53' E 010°40'0 0.4
2014-Dec-16 04:30N 59°52' E 010°39'0 0.0
2014-Dec-16 00:06N 59°52' E 010°39'0 0.0
2014-Dec-15 23:23N 59°52' E 010°39'0 0.0
2014-Dec-15 22:21N 59°52' E 010°39'0 0.0
2014-Dec-15 21:27N 59°52' E 010°39'0 0.0
2014-Dec-15 20:27N 59°52' E 010°39'0 0.0
2014-Dec-15 19:30N 59°52' E 010°39'0 0.0
2014-Dec-15 18:26N 59°52' E 010°39'0 0.0
2014-Dec-15 17:30N 59°52' E 010°39'0 0.0
2014-Dec-15 16:28N 59°52' E 010°39'1 1.1
2014-Dec-15 15:33N 59°53' E 010°40'2 2.3
2014-Dec-15 14:33N 59°55' E 010°44'0 0.0
2014-Dec-15 13:24N 59°55' E 010°44'0 0.0
2014-Dec-15 12:12N 59°55' E 010°44'0 0.0
2014-Dec-15 11:24N 59°55' E 010°44'0 0.0
2014-Dec-15 10:30N 59°55' E 010°44'0 0.0
2014-Dec-15 09:30N 59°55' E 010°44'0 0.0
2014-Dec-15 08:30N 59°55' E 010°44'3 3.1
2014-Dec-15 07:31N 59°52' E 010°40'0 0.4
2014-Dec-15 06:29N 59°53' E 010°40'0 0.3
2014-Dec-15 05:33N 59°53' E 010°40'0 0.1
2014-Dec-15 04:33N 59°53' E 010°40'3 2.9
2014-Dec-15 03:33N 59°55' E 010°44'0 0.0
2014-Dec-15 02:24N 59°55' E 010°44'0 0.0
2014-Dec-15 01:27N 59°55' E 010°44'0 0.0
2014-Dec-15 00:24N 59°55' E 010°44'0 0.0
2014-Dec-14 23:27N 59°55' E 010°44'0 0.0
2014-Dec-14 22:27N 59°55' E 010°44'0 0.0
2014-Dec-14 21:30N 59°55' E 010°44'0 0.0
2014-Dec-14 20:30N 59°55' E 010°44'0 0.0
2014-Dec-14 19:30N 59°55' E 010°44'0 0.0
2014-Dec-14 18:33N 59°55' E 010°44'0 0.0
2014-Dec-14 17:33N 59°55' E 010°44'0 0.0
2014-Dec-14 16:33N 59°55' E 010°44'0 0.0
2014-Dec-14 15:21N 59°55' E 010°44'0 0.0
2014-Dec-14 14:33N 59°55' E 010°44'0 0.0
2014-Dec-14 13:33N 59°55' E 010°44'0 0.0
2014-Dec-14 12:21N 59°55' E 010°44'0 0.0
2014-Dec-14 11:24N 59°55' E 010°44'0 0.0
2014-Dec-14 10:27N 59°55' E 010°44'0 0.0
2014-Dec-14 09:27N 59°55' E 010°44'0 0.0
2014-Dec-14 08:30N 59°55' E 010°44'0 0.0
2014-Dec-14 07:30N 59°55' E 010°44'0 0.0
2014-Dec-14 06:27N 59°55' E 010°44'0 0.0
2014-Dec-14 05:33N 59°55' E 010°44'0 0.0
2014-Dec-14 04:18N 59°55' E 010°44'0 0.0
2014-Dec-14 03:33N 59°55' E 010°44'0 0.0
2014-Dec-14 02:33N 59°55' E 010°44'0 0.0
2014-Dec-14 01:33N 59°55' E 010°44'0 0.0
2014-Dec-14 00:21N 59°55' E 010°44'0 0.0
2014-Dec-13 23:33N 59°55' E 010°44'0 0.0
2014-Dec-13 22:24N 59°55' E 010°44'0 0.0
2014-Dec-13 21:24N 59°55' E 010°44'0 0.0
2014-Dec-13 20:27N 59°55' E 010°44'0 0.0
2014-Dec-13 19:27N 59°55' E 010°44'0 0.0
2014-Dec-13 18:30N 59°55' E 010°44'0 0.0
2014-Dec-13 17:27N 59°55' E 010°44'0 0.0
2014-Dec-13 16:27N 59°55' E 010°44'0 0.0
2014-Dec-13 15:33N 59°55' E 010°44'0 0.0
2014-Dec-13 14:33N 59°55' E 010°44'0 0.0
2014-Dec-13 13:30N 59°55' E 010°44'0 0.0
2014-Dec-13 12:33N 59°55' E 010°44'0 0.0
2014-Dec-13 11:33N 59°55' E 010°44'0 0.0
2014-Dec-13 10:33N 59°55' E 010°44'0 0.0
2014-Dec-13 09:33N 59°55' E 010°44'0 0.0
2014-Dec-13 08:24N 59°55' E 010°44'0 0.0
2014-Dec-13 07:24N 59°55' E 010°44'0 0.0
2014-Dec-13 06:27N 59°55' E 010°44'0 0.0
2014-Dec-13 05:27N 59°55' E 010°44'0 0.0
2014-Dec-13 04:27N 59°55' E 010°44'0 0.0
2014-Dec-13 03:30N 59°55' E 010°44'0 0.0
2014-Dec-13 02:30N 59°55' E 010°44'0 0.0
2014-Dec-13 01:30N 59°55' E 010°44'0 0.0
2014-Dec-13 00:33N 59°55' E 010°44'0 0.0
2014-Dec-12 23:33N 59°55' E 010°44'0 0.0
2014-Dec-12 22:30N 59°55' E 010°44'0 0.0
2014-Dec-12 21:33N 59°55' E 010°44'0 0.0
2014-Dec-12 20:33N 59°55' E 010°44'0 0.0
2014-Dec-12 19:33N 59°55' E 010°44'0 0.0
2014-Dec-12 18:24N 59°55' E 010°44'0 0.0
2014-Dec-12 17:21N 59°55' E 010°44'3 3.4
2014-Dec-12 16:30N 59°53' E 010°40'0 0.1
2014-Dec-12 15:30N 59°53' E 010°40'1 0.5
2014-Dec-12 14:26N 59°53' E 010°41'2 2.3
2014-Dec-12 13:28N 59°55' E 010°44'0 0.0
2014-Dec-12 12:16N 59°55' E 010°44'0 0.0
2014-Dec-12 11:31N 59°55' E 010°44'0 0.1
2014-Dec-12 10:33N 59°55' E 010°44'0 0.1
2014-Dec-12 09:33N 59°54' E 010°44'0 0.1
2014-Dec-12 08:33N 59°55' E 010°44'1 1.0
2014-Dec-12 07:33N 59°54' E 010°42'0 0.2
2014-Dec-12 06:33N 59°54' E 010°42'1 1.2
2014-Dec-12 05:29N 59°55' E 010°44'0 0.0
2014-Dec-12 04:17N 59°55' E 010°44'0 0.0
2014-Dec-12 03:23N 59°55' E 010°44'0 0.0
2014-Dec-12 02:32N 59°55' E 010°44'0 0.0
2014-Dec-12 01:23N 59°55' E 010°44'0 0.0
2014-Dec-12 00:23N 59°55' E 010°44'0 0.0
2014-Dec-11 23:23N 59°55' E 010°44'0 0.0
2014-Dec-11 22:23N 59°55' E 010°44'0 0.0
2014-Dec-11 21:29N 59°55' E 010°44'0 0.0
2014-Dec-11 20:29N 59°55' E 010°44'0 0.0
2014-Dec-11 19:29N 59°55' E 010°44'0 0.0
2014-Dec-11 18:29N 59°55' E 010°44'0 0.1
2014-Dec-11 17:33N 59°55' E 010°44'0 0.0
2014-Dec-11 16:33N 59°55' E 010°44'0 0.1
2014-Dec-11 15:33N 59°55' E 010°44'0 0.1
2014-Dec-11 14:33N 59°55' E 010°44'0 0.0
2014-Dec-11 13:33N 59°55' E 010°44'0 0.1
2014-Dec-11 12:33N 59°55' E 010°44'0 0.0
2014-Dec-11 11:33N 59°55' E 010°44'0 0.1
2014-Dec-11 10:23N 59°55' E 010°44'0 0.0
2014-Dec-11 09:23N 59°55' E 010°44'0 0.0
2014-Dec-11 08:29N 59°55' E 010°44'0 0.1
2014-Dec-11 07:33N 59°55' E 010°44'0 0.0
2014-Dec-11 06:33N 59°55' E 010°44'0 0.1
2014-Dec-11 05:33N 59°55' E 010°44'  

Dump ship's entire track history